ADDS METAR Data INFO
IDs: Format: Raw Decoded Include TAF

Data at: 0212 UTC 17 Aug 2018

PARS 170156Z AUTO 21008KT 10SM FEW046 BKN080 15/09 A2997 RMK AO2 SLP152 T01500089 $
PARS 170056Z AUTO 26008KT 10SM FEW049 BKN065 16/07 A2997 RMK AO2 SLP153 T01560067 $
PARS 162356Z AUTO VRB05KT 10SM FEW050 16/07 A2997 RMK AO2 SLP154 T01610067 10167 20100 55001 $
PARS 162256Z AUTO 23007KT 210V270 10SM CLR 17/06 A2997 RMK AO2 SLP153 T01670061 $
PARS 162156Z AUTO VRB06KT 10SM BKN038 16/07 A2997 RMK AO2 SLP154 T01560072 $
PARS 162056Z AUTO 24007KT 10SM BKN065 15/08 A2997 RMK AO2 SLP155 T01500078 50000 $
PARS 161956Z AUTO 27006KT 10SM SCT065 14/08 A2998 RMK AO2 SLP156 T01440078 $
PARS 161856Z AUTO 25003KT 10SM BKN065 13/09 A2998 RMK AO2 SLP155 T01280089 $
PARS 161756Z AUTO 00000KT 10SM CLR 10/08 A2997 RMK AO2 SLP154 T01000078 10100 20033 52004 $
PARS 161656Z AUTO 00000KT 10SM CLR 06/06 A2997 RMK AO2 SLP153 T00560056 $
PARS 161611Z AUTO 24003KT 10SM CLR 04/04 A2997 RMK AO2 $
PARS 161556Z AUTO 24005KT 1 1/4SM BR CLR 04/04 A2997 RMK AO2 SLP152 T00390039 $
PARS 161456Z AUTO 24005KT 10SM CLR 03/03 A2996 RMK AO2 SLP151 T00330033 51001 $
PARS 161356Z AUTO 25005KT 10SM CLR 04/03 A2996 RMK AO2 SLP151 T00390033 $
PARS 161256Z AUTO 25005KT 10SM CLR 04/03 A2996 RMK AO2 SLP150 T00390033 $
PARS 161156Z AUTO 25004KT 10SM CLR 04/04 A2996 RMK AO2 SLP150 T00440039 10111 20044 51003 $
PARS 161056Z AUTO 24004KT 10SM CLR 05/04 A2996 RMK AO2 SLP150 T00500044 $
PARS 160956Z AUTO 25005KT 10SM CLR 06/05 A2995 RMK AO2 SLP148 T00560050 $
PARS 160856Z AUTO 23004KT 10SM CLR 07/06 A2995 RMK AO2 SLP147 T00670061 53008 $
PARS 160756Z AUTO 00000KT 10SM CLR 07/07 A2994 RMK AO2 SLP143 T00720067 401610028 $
PARS 160656Z AUTO 25004KT 10SM CLR 09/08 A2993 RMK AO2 SLP140 T00890078 $
PARS 160556Z AUTO 26003KT 10SM CLR 11/08 A2993 RMK AO2 SLP138 T01110083 10161 20111 53002 $
PARS 160456Z AUTO 00000KT 10SM CLR 14/07 A2992 RMK AO2 SLP137 T01440067 $
PARS 160356Z AUTO 00000KT 10SM CLR 16/04 A2992 RMK AO2 SLP136 T01610044 $
PARS 160256Z AUTO 00000KT 10SM CLR 16/05 A2992 RMK AO2 SLP137 T01560050 56003 $
PARS 160156Z AUTO 03003KT 10SM BKN044 16/06 A2992 RMK AO2 SLP137 T01610061 $
PARS 160056Z AUTO 00000KT 10SM SCT040 14/05 A2992 RMK AO2 SLP137 T01440050 $
PARS 152256Z AUTO VRB03KT 10SM FEW035 13/06 A2994 RMK AO2 SLP142 T01330056 $
PARS 152156Z AUTO 04003KT 10SM FEW029 13/06 A2994 RMK AO2 SLP143 T01280061 $
PARS 152126Z AUTO VRB04KT 10SM SCT022 12/07 A2994 RMK AO2 $
PARS 152108Z AUTO 00000KT 10SM BKN022 BKN027 12/07 A2994 RMK AO2 $
PARS 152056Z AUTO 00000KT 10SM SCT020 12/08 A2994 RMK AO2 SLP143 T01170078 58002 $
PARS 152006Z AUTO 02003KT 10SM SCT011 09/07 A2994 RMK AO2 $
PARS 151956Z AUTO 02004KT 10SM BKN011 10/08 A2994 RMK AO2 SLP145 T01000078 $
PARS 151954Z AUTO VRB03KT 10SM BKN011 09/08 A2994 RMK AO2 $
PARS 151923Z AUTO 00000KT 10SM OVC007 09/08 A2995 RMK AO2 CIG 005V009 $
PARS 151824Z AUTO 00000KT 4SM BR OVC003 07/07 A2995 RMK AO2 $
PARS 151817Z AUTO VRB03KT 2 1/2SM BR OVC003 07/07 A2994 RMK AO2 VIS 1 3/4V5 $
PARS 151802Z AUTO 36003KT 1 3/4SM BR OVC003 07/07 A2994 RMK AO2 $
PARS 151756Z AUTO 00000KT 5SM BR OVC003 07/07 A2994 RMK AO2 SLP143 T00720072 10072 20028 53009 $
PARS 151745Z AUTO 00000KT 3SM BR OVC003 07/07 A2994 RMK AO2 $
PARS 151741Z AUTO 02003KT 1 3/4SM BR OVC003 07/07 A2994 RMK AO2 $
PARS 151734Z AUTO 02004KT 2 1/2SM BR OVC003 07/07 A2994 RMK AO2 VIS 1 1/4V3 $
PARS 151716Z AUTO 34003KT 3SM BR OVC003 07/07 A2993 RMK AO2 $
PARS 151711Z AUTO 00000KT 1 1/4SM BR OVC003 07/07 A2993 RMK AO2 $
PARS 151708Z AUTO 00000KT 3/4SM BR OVC003 07/07 A2993 RMK AO2 RVRNO $
PARS 151656Z AUTO 36003KT 1/4SM FG OVC003 07/07 A2993 RMK AO2 SLP138 T00670067 RVRNO $
PARS 151556Z AUTO 26003KT 1/4SM FG OVC003 04/04 A2992 RMK AO2 SLP137 T00440039 RVRNO $
PARS 151505Z AUTO 24004KT 1/4SM FG OVC003 03/03 A2992 RMK AO2 RVRNO $
PARS 151501Z AUTO 25003KT 3/4SM BR OVC003 03/03 A2991 RMK AO2 RVRNO $
PARS 151458Z AUTO 26003KT 1 3/4SM BR OVC003 03/03 A2991 RMK AO2 $
PARS 151456Z AUTO 25004KT 3SM BR OVC003 03/03 A2991 RMK AO2 SLP134 T00280028 53002 $
PARS 151428Z AUTO 25003KT 3SM BR BKN003 03/03 A2991 RMK AO2 $
PARS 151426Z AUTO 24003KT 1 3/4SM BR BKN003 03/03 A2991 RMK AO2 $
PARS 151416Z AUTO 25004KT 1 1/2SM BR SCT003 03/03 A2991 RMK AO2 $